Time;durP1;ratioP1;P1;durP2;ratioP2;P2;SDS_P1;SDS_P2;PMS_P1;PMS_P2;Temp;Humidity;BMP_temperature;BMP_pressure;BME280_temperature;BME280_humidity;BME280_pressure;Samples;Min_cycle;Max_cycle;Signal;HPM_P1;HPM_P2
2023/06/10 04:01:10;;;;;;;0.60;0.20;;;20.70;1.00;;;;;;5729547;23;20910;-72
2023/06/10 04:03:39;;;;;;;0.60;0.20;;;20.60;1.00;;;;;;4940051;29;20452;-71
2023/06/10 04:06:07;;;;;;;0.60;0.20;;;;;;;;;;4954186;29;20866;-72
2023/06/10 04:08:35;;;;;;;0.70;0.20;;;20.50;1.00;;;;;;4946075;29;20444;-71
2023/06/10 04:11:03;;;;;;;0.60;0.10;;;20.50;1.00;;;;;;4934534;29;21041;-72
2023/06/10 04:13:31;;;;;;;0.60;0.20;;;20.50;1.00;;;;;;4934754;29;20496;-72
2023/06/10 04:15:59;;;;;;;0.60;0.20;;;20.60;1.00;;;;;;4960070;23;20618;-72
2023/06/10 04:18:28;;;;;;;0.60;0.20;;;20.60;1.00;;;;;;4972417;28;20473;-72
2023/06/10 04:20:56;;;;;;;0.60;0.10;;;20.70;1.00;;;;;;4964696;28;20492;-72
2023/06/10 04:23:24;;;;;;;0.60;0.20;;;20.70;1.00;;;;;;4957730;28;20491;-73
2023/06/10 04:25:52;;;;;;;0.70;0.40;;;20.70;1.00;;;;;;4955708;28;21048;-73
2023/06/10 04:28:20;;;;;;;1.20;0.33;;;20.70;1.00;;;;;;4953161;29;20448;-71
2023/06/10 04:30:48;;;;;;;1.03;0.50;;;20.70;1.00;;;;;;4953218;29;20455;-72
2023/06/10 04:33:17;;;;;;;0.60;0.20;;;20.70;1.00;;;;;;4952627;29;20598;-72
2023/06/10 04:35:47;;;;;;;1.23;0.87;;;20.60;1.00;;;;;;4953054;29;20914;-73
2023/06/10 04:38:15;;;;;;;0.70;0.50;;;20.60;1.00;;;;;;4953380;29;20462;-70
2023/06/10 04:40:43;;;;;;;0.60;0.17;;;20.70;1.00;;;;;;4952752;29;20482;-73
2023/06/10 04:43:10;;;;;;;0.60;0.20;;;20.80;1.00;;;;;;4952846;29;20938;-73
2023/06/10 04:45:39;;;;;;;0.60;0.20;;;20.80;1.00;;;;;;4953031;29;20460;-73
2023/06/10 04:48:07;;;;;;;0.60;0.10;;;20.80;1.00;;;;;;4953508;29;20455;-73
2023/06/10 04:50:35;;;;;;;0.70;0.30;;;20.80;1.00;;;;;;4953345;29;20446;-73
2023/06/10 04:53:04;;;;;;;0.70;0.30;;;20.80;1.00;;;;;;4952790;29;20472;-72
2023/06/10 04:55:33;;;;;;;0.60;0.20;;;20.80;1.00;;;;;;4952919;29;20558;-72
2023/06/10 04:58:01;;;;;;;0.60;0.20;;;20.80;1.00;;;;;;4953611;29;20549;-73
2023/06/10 05:00:30;;;;;;;0.60;0.20;;;20.80;1.00;;;;;;4952693;29;20534;-73
2023/06/10 05:02:57;;;;;;;0.70;0.37;;;20.80;1.00;;;;;;4952483;29;20524;-73
2023/06/10 05:05:26;;;;;;;0.60;0.10;;;20.80;1.00;;;;;;4952907;29;20467;-72
2023/06/10 05:07:53;;;;;;;0.70;0.40;;;20.80;1.00;;;;;;4955825;29;20451;-73
2023/06/10 05:10:23;;;;;;;1.17;1.07;;;20.80;1.00;;;;;;4957051;29;20813;-73
2023/06/10 05:12:51;;;;;;;0.70;0.53;;;20.70;1.00;;;;;;4956465;29;20482;-72
2023/06/10 05:15:18;;;;;;;0.60;0.10;;;20.70;1.00;;;;;;4956523;29;20479;-73
2023/06/10 05:17:46;;;;;;;0.60;0.10;;;20.80;1.00;;;;;;4956449;29;20442;-73
2023/06/10 05:20:15;;;;;;;0.60;0.10;;;20.90;1.00;;;;;;4956742;29;20475;-73
2023/06/10 05:22:42;;;;;;;0.60;0.10;;;20.80;1.00;;;;;;4953734;29;20493;-73
2023/06/10 05:25:10;;;;;;;0.60;0.10;;;20.90;1.00;;;;;;4946342;29;20882;-72
2023/06/10 05:27:41;;;;;;;0.60;0.20;;;20.90;1.00;;;;;;4951590;29;20457;-72
2023/06/10 05:30:11;;;;;;;0.90;0.40;;;20.90;1.00;;;;;;4956120;29;20450;-72
2023/06/10 05:32:39;;;;;;;0.60;0.17;;;20.90;1.00;;;;;;4954981;29;20448;-72
2023/06/10 05:35:07;;;;;;;0.60;0.10;;;20.90;1.00;;;;;;4955814;29;20464;-73
2023/06/10 05:37:36;;;;;;;1.00;0.57;;;21.00;1.00;;;;;;4955932;29;20452;-73
2023/06/10 05:40:06;;;;;;;0.80;0.50;;;21.00;1.00;;;;;;4955797;29;20506;-73
2023/06/10 05:42:33;;;;;;;0.60;0.10;;;21.00;1.00;;;;;;4955539;29;20493;-73
2023/06/10 05:45:03;;;;;;;0.60;0.20;;;21.20;1.00;;;;;;4953218;29;20467;-71
2023/06/10 05:47:31;;;;;;;0.70;0.50;;;21.10;1.00;;;;;;4936497;29;20535;-71
2023/06/10 05:49:59;;;;;;;0.60;0.10;;;21.20;1.00;;;;;;4936866;29;20842;-73
2023/06/10 05:52:26;;;;;;;1.17;1.07;;;21.20;1.00;;;;;;4936431;29;20444;-72
2023/06/10 05:54:55;;;;;;;0.60;0.30;;;21.30;1.00;;;;;;4935935;29;20936;-73
2023/06/10 05:57:23;;;;;;;0.60;0.10;;;21.30;1.00;;;;;;4962571;28;20478;-73
2023/06/10 05:59:51;;;;;;;0.70;0.60;;;21.30;1.00;;;;;;4954836;29;20546;-72
2023/06/10 06:02:20;;;;;;;1.37;1.27;;;21.20;1.00;;;;;;4957356;29;20534;-72
2023/06/10 06:04:48;;;;;;;3.80;0.90;;;21.10;1.00;;;;;;4957680;28;20478;-72
2023/06/10 06:07:16;;;;;;;0.60;0.20;;;21.20;1.00;;;;;;4954349;29;20459;-72
2023/06/10 06:09:44;;;;;;;1.50;1.40;;;21.20;1.00;;;;;;4963425;28;20529;-72
2023/06/10 06:12:11;;;;;;;0.60;0.10;;;21.20;1.00;;;;;;4965022;28;20463;-73
2023/06/10 06:14:40;;;;;;;2.93;0.33;;;21.30;1.00;;;;;;4952937;29;21002;-73
2023/06/10 06:17:08;;;;;;;3.63;3.43;;;21.30;1.00;;;;;;4937411;29;20465;-75
2023/06/10 06:19:37;;;;;;;0.60;0.10;;;21.30;1.00;;;;;;4935910;29;20588;-79
2023/06/10 06:22:05;;;;;;;0.60;0.20;;;21.40;1.00;;;;;;4938592;29;21034;-78
2023/06/10 06:24:33;;;;;;;0.80;0.30;;;21.40;1.00;;;;;;4939301;29;20500;-77
2023/06/10 06:27:01;;;;;;;0.60;0.20;;;21.60;1.00;;;;;;4939070;29;20501;-78
2023/06/10 06:29:30;;;;;;;0.60;0.20;;;21.60;1.00;;;;;;4955211;29;20475;-78
2023/06/10 06:31:58;;;;;;;0.70;0.40;;;21.70;1.00;;;;;;4958476;29;20508;-77
2023/06/10 06:34:26;;;;;;;0.60;0.10;;;21.70;1.00;;;;;;4960178;29;20527;-78
2023/06/10 06:36:55;;;;;;;0.60;0.13;;;21.80;1.00;;;;;;4947190;29;20487;-78
2023/06/10 06:39:23;;;;;;;0.60;0.20;;;21.90;1.00;;;;;;4938152;29;20476;-78
2023/06/10 06:41:51;;;;;;;1.00;0.53;;;21.90;1.00;;;;;;4936764;29;20490;-78
2023/06/10 06:44:18;;;;;;;0.90;0.40;;;22.00;1.00;;;;;;4936549;29;20528;-78
2023/06/10 06:46:46;;;;;;;0.70;0.30;;;22.00;1.00;;;;;;4948044;28;20475;-78
2023/06/10 06:49:14;;;;;;;0.60;0.10;;;22.10;1.00;;;;;;4974837;28;20482;-78
2023/06/10 06:51:42;;;;;;;0.90;0.30;;;22.10;1.00;;;;;;4955028;28;21155;-78
2023/06/10 06:54:11;;;;;;;0.60;0.10;;;22.20;1.00;;;;;;4959218;28;20523;-77
2023/06/10 06:56:39;;;;;;;0.60;0.10;;;22.20;1.00;;;;;;4959582;28;21007;-77
2023/06/10 06:59:07;;;;;;;1.50;1.40;;;22.20;1.00;;;;;;4960770;28;20460;-77
2023/06/10 07:01:35;;;;;;;0.70;0.20;;;22.20;1.00;;;;;;4941610;29;20572;-77
2023/06/10 07:04:03;;;;;;;1.00;0.60;;;22.30;1.00;;;;;;4953799;29;20507;-77
2023/06/10 07:06:31;;;;;;;1.20;1.00;;;22.30;1.00;;;;;;4965613;28;20488;-78
2023/06/10 07:09:00;;;;;;;0.87;0.50;;;22.30;1.00;;;;;;4945212;29;20481;-76
2023/06/10 07:11:30;;;;;;;0.80;0.60;;;22.20;1.00;;;;;;4956908;28;20455;-76
2023/06/10 07:13:58;;;;;;;1.00;0.50;;;22.30;1.00;;;;;;4959808;28;20885;-75
2023/06/10 07:16:25;;;;;;;1.17;0.97;;;22.30;1.00;;;;;;4956743;28;20503;-75
2023/06/10 07:18:53;;;;;;;0.70;0.40;;;22.30;1.00;;;;;;4962039;28;20452;-76
2023/06/10 07:21:22;;;;;;;3.83;3.60;;;22.30;1.00;;;;;;4962843;28;20528;-76
2023/06/10 07:23:53;;;;;;;0.70;0.40;;;22.30;1.00;;;;;;4953126;29;20452;-75
2023/06/10 07:26:23;;;;;;;0.67;0.10;;;22.40;1.00;;;;;;4953029;29;20579;-75
2023/06/10 07:28:52;;;;;;;0.70;0.10;;;22.40;1.00;;;;;;4954264;28;20462;-76
2023/06/10 07:31:22;;;;;;;0.60;0.10;;;22.50;1.00;;;;;;4953797;29;20445;-76
2023/06/10 07:33:50;;;;;;;0.70;0.30;;;22.60;1.00;;;;;;4953812;29;20452;-77
2023/06/10 07:36:18;;;;;;;0.80;0.40;;;22.60;1.00;;;;;;4948930;28;20487;-77
2023/06/10 07:38:46;;;;;;;0.70;0.20;;;22.80;1.00;;;;;;4948722;28;20560;-76
2023/06/10 07:41:14;;;;;;;0.70;0.30;;;22.80;1.00;;;;;;4952985;28;20535;-77
2023/06/10 07:43:42;;;;;;;0.70;0.10;;;23.00;1.00;;;;;;4952081;28;20484;-75
2023/06/10 07:46:11;;;;;;;1.37;1.03;;;23.00;1.00;;;;;;4965841;28;20542;-77
2023/06/10 07:48:39;;;;;;;1.23;1.13;;;23.10;1.00;;;;;;4975451;28;20456;-76
2023/06/10 07:51:07;;;;;;;1.20;0.97;;;23.10;1.00;;;;;;4973702;28;20450;-76
2023/06/10 07:53:35;;;;;;;1.00;0.40;;;;;;;;;;4974860;28;20544;-77
2023/06/10 07:56:03;;;;;;;0.70;0.20;;;23.20;1.00;;;;;;4956443;29;20474;-76
2023/06/10 07:58:30;;;;;;;1.33;0.87;;;23.30;1.00;;;;;;4954833;28;20964;-75
2023/06/10 08:00:58;;;;;;;3.63;3.07;;;23.40;1.00;;;;;;4957908;28;20467;-76
2023/06/10 08:03:27;;;;;;;0.70;0.20;;;23.30;1.00;;;;;;4952249;28;20486;-75
2023/06/10 08:05:55;;;;;;;0.70;0.10;;;23.30;1.00;;;;;;4950015;28;20985;-76
2023/06/10 08:08:23;;;;;;;0.70;0.10;;;23.40;1.00;;;;;;4934728;29;20529;-76
2023/06/10 08:10:51;;;;;;;1.03;0.67;;;23.40;1.00;;;;;;4950761;29;20626;-75
2023/06/10 08:13:19;;;;;;;0.80;0.40;;;23.50;1.00;;;;;;4957009;28;20471;-73
2023/06/10 08:15:50;;;;;;;0.70;0.20;;;23.60;1.00;;;;;;4968490;28;20535;-73
2023/06/10 08:18:18;;;;;;;0.70;0.20;;;23.70;1.00;;;;;;4952041;29;20461;-75
2023/06/10 08:20:47;;;;;;;0.70;0.20;;;23.80;1.00;;;;;;4960859;28;20608;-74
2023/06/10 08:23:15;;;;;;;3.57;1.73;;;23.90;1.00;;;;;;4959356;28;20993;-74
2023/06/10 08:25:43;;;;;;;0.70;0.27;;;23.90;1.00;;;;;;4953860;29;20480;-74
2023/06/10 08:28:11;;;;;;;1.10;0.93;;;23.80;1.00;;;;;;4954562;29;20460;-75
2023/06/10 08:30:39;;;;;;;0.73;0.50;;;24.00;1.00;;;;;;4945772;29;20827;-74
2023/06/10 08:33:07;;;;;;;0.70;0.20;;;24.20;1.00;;;;;;4942828;28;20545;-76
2023/06/10 08:35:35;;;;;;;0.70;0.10;;;24.20;1.00;;;;;;4953213;29;20549;-75
2023/06/10 08:38:04;;;;;;;1.90;1.80;;;24.20;1.00;;;;;;4934019;29;21037;-75
2023/06/10 08:40:33;;;;;;;0.70;0.20;;;24.30;1.00;;;;;;4935815;29;20465;-74
2023/06/10 08:43:07;;;;;;;0.70;0.10;;;24.30;1.00;;;;;;4948651;29;20481;-74
2023/06/10 08:45:37;;;;;;;0.70;0.10;;;24.40;1.00;;;;;;4957011;29;20466;-76
2023/06/10 08:48:07;;;;;;;0.80;0.60;;;24.40;1.00;;;;;;4957167;29;20938;-75
2023/06/10 08:50:37;;;;;;;0.70;0.20;;;24.60;1.00;;;;;;4950368;29;20472;-74
2023/06/10 08:53:07;;;;;;;1.13;1.03;;;24.60;1.00;;;;;;4937938;29;20865;-74
2023/06/10 08:55:38;;;;;;;1.00;0.90;;;24.70;1.00;;;;;;4953896;29;20462;-77
2023/06/10 08:58:06;;;;;;;0.80;0.40;;;;;;;;;;4956684;29;20544;-73
2023/06/10 09:00:36;;;;;;;0.70;0.30;;;24.80;1.00;;;;;;4955821;29;20543;-73
2023/06/10 09:03:08;;;;;;;0.80;0.43;;;24.80;1.00;;;;;;4937265;29;20490;-76
2023/06/10 09:05:36;;;;;;;1.60;1.50;;;25.00;1.00;;;;;;4950825;29;20482;-77
2023/06/10 09:08:07;;;;;;;0.77;0.40;;;25.00;1.00;;;;;;4964577;28;20537;-75
2023/06/10 09:10:35;;;;;;;0.70;0.20;;;25.00;1.00;;;;;;4965023;28;20489;-77
2023/06/10 09:13:03;;;;;;;0.80;0.40;;;25.20;1.00;;;;;;4937523;29;20451;-76
2023/06/10 09:15:31;;;;;;;1.70;1.60;;;25.20;1.00;;;;;;4937420;29;20475;-76
2023/06/10 09:18:00;;;;;;;0.90;0.50;;;25.30;1.00;;;;;;4948289;28;20509;-76
2023/06/10 09:20:28;;;;;;;1.00;0.67;;;25.20;1.00;;;;;;4957041;29;20449;-76
2023/06/10 09:22:56;;;;;;;0.70;0.20;;;25.30;1.00;;;;;;4957294;29;20486;-75
2023/06/10 09:25:36;;;;;;;0.70;0.10;;;25.30;1.00;;;;;;4946358;29;20479;-74
2023/06/10 09:28:05;;;;;;;1.23;1.13;;;25.40;1.00;;;;;;4937249;29;20534;-73
2023/06/10 09:30:35;;;;;;;0.70;0.20;;;25.50;1.00;;;;;;4937380;29;20888;-72
2023/06/10 09:33:10;;;;;;;0.80;0.33;;;25.50;1.00;;;;;;4957668;28;20465;-75
2023/06/10 09:35:46;;;;;;;0.90;0.60;;;27.70;1.00;;;;;;4961328;28;20473;-76
2023/06/10 09:38:16;;;;;;;2.20;0.80;;;25.60;1.00;;;;;;4955560;29;21029;-74
2023/06/10 09:40:52;;;;;;;0.70;0.20;;;25.70;1.00;;;;;;4939642;29;20463;-77
2023/06/10 09:43:20;;;;;;;0.70;0.20;;;25.70;1.00;;;;;;4937088;29;20497;-76
2023/06/10 09:45:49;;;;;;;0.70;0.10;;;25.80;1.00;;;;;;4937883;29;20506;-77
2023/06/10 09:48:18;;;;;;;0.70;0.30;;;;;;;;;;4939290;29;20529;-74
2023/06/10 09:50:50;;;;;;;0.70;0.20;;;25.70;1.00;;;;;;4957423;28;20982;-79
2023/06/10 09:53:18;;;;;;;0.70;0.30;;;25.90;1.00;;;;;;4958751;28;20933;-75
2023/06/10 09:55:46;;;;;;;0.90;0.27;;;26.00;1.00;;;;;;4959020;29;20474;-73
2023/06/10 09:58:16;;;;;;;1.13;1.03;;;26.00;1.00;;;;;;4950725;29;20526;-76
2023/06/10 10:00:43;;;;;;;0.70;0.20;;;26.10;1.00;;;;;;4941360;29;20832;-73
2023/06/10 10:03:23;;;;;;;0.70;0.20;;;26.20;1.00;;;;;;4940176;29;20559;-74
2023/06/10 10:05:59;;;;;;;0.80;0.30;;;26.30;1.00;;;;;;4960366;28;20505;-75
2023/06/10 10:08:29;;;;;;;0.80;0.50;;;26.30;1.00;;;;;;4961429;28;20457;-76
2023/06/10 10:11:00;;;;;;;0.80;0.60;;;26.40;1.00;;;;;;4960580;28;20990;-76
2023/06/10 10:13:33;;;;;;;1.37;0.47;;;26.30;1.00;;;;;;4977648;28;20546;-76
2023/06/10 10:16:04;;;;;;;0.80;0.50;;;26.40;1.00;;;;;;4955202;23;20585;-71
2023/06/10 10:18:33;;;;;;;0.70;0.20;;;26.40;1.00;;;;;;4953305;29;20485;-74
2023/06/10 10:21:05;;;;;;;0.70;0.10;;;26.50;1.00;;;;;;4953433;29;20486;-73
2023/06/10 10:23:39;;;;;;;0.80;0.33;;;26.60;1.00;;;;;;4953614;29;20486;-73
2023/06/10 10:26:11;;;;;;;1.30;1.20;;;26.60;1.00;;;;;;4951618;29;20470;-73
2023/06/10 10:28:46;;;;;;;0.70;0.30;;;26.70;1.00;;;;;;4954935;29;20439;-74
2023/06/10 10:31:18;;;;;;;0.70;0.30;;;26.60;1.00;;;;;;4948841;29;20457;-74
2023/06/10 10:33:50;;;;;;;0.70;0.20;;;;;;;;;;4954544;29;20461;-74
2023/06/10 10:36:20;;;;;;;1.00;0.67;;;26.80;1.00;;;;;;4953540;29;20494;-72
2023/06/10 10:38:49;;;;;;;0.80;0.30;;;26.90;1.00;;;;;;4935598;29;20539;-72
2023/06/10 10:41:21;;;;;;;1.30;1.20;;;26.90;1.00;;;;;;4935403;29;20467;-73
2023/06/10 10:43:52;;;;;;;0.70;0.20;;;26.90;1.00;;;;;;4947570;29;20516;-74
2023/06/10 10:46:20;;;;;;;0.90;0.30;;;26.90;1.00;;;;;;4955445;29;20989;-73
2023/06/10 10:48:53;;;;;;;0.70;0.23;;;26.90;1.00;;;;;;4956057;29;20502;-72
2023/06/10 10:51:21;;;;;;;0.70;0.10;;;;;;;;;;4955930;29;20832;-72
2023/06/10 10:54:14;;;;;;;0.80;0.20;;;26.90;1.00;;;;;;4955251;28;20471;-76
2023/06/10 10:57:16;;;;;;;0.80;0.33;;;26.90;1.00;;;;;;4953163;29;20789;-71
2023/06/10 10:59:56;;;;;;;1.30;0.57;;;27.00;1.00;;;;;;4949233;29;20568;-75
2023/06/10 11:02:42;;;;;;;1.23;1.13;;;27.00;1.00;;;;;;4952326;29;20450;-76
2023/06/10 11:05:12;;;;;;;0.70;0.10;;;27.00;1.00;;;;;;4950418;29;20493;-71
2023/06/10 11:07:40;;;;;;;0.70;0.20;;;27.00;1.00;;;;;;4955566;29;20558;-71
2023/06/10 11:10:10;;;;;;;0.70;0.20;;;27.00;1.00;;;;;;4956692;29;20480;-71
2023/06/10 11:12:53;;;;;;;0.70;0.10;;;27.00;1.00;;;;;;4954399;29;20458;-71
2023/06/10 11:15:24;;;;;;;1.33;1.03;;;27.10;1.00;;;;;;4953575;28;20447;-73
2023/06/10 11:18:12;;;;;;;0.70;0.30;;;27.20;1.00;;;;;;4956164;29;20439;-72
2023/06/10 11:20:52;;;;;;;0.70;0.20;;;27.30;1.00;;;;;;4954624;29;20475;-71
2023/06/10 11:23:42;;;;;;;0.70;0.33;;;27.30;1.00;;;;;;4948220;29;20513;-72
2023/06/10 11:26:21;;;;;;;1.10;0.93;;;27.40;1.00;;;;;;4941342;29;20467;-72
2023/06/10 11:29:10;;;;;;;0.70;0.20;;;27.50;1.00;;;;;;4954174;29;20817;-72
2023/06/10 11:31:45;;;;;;;0.70;0.30;;;27.60;1.00;;;;;;4950521;29;20541;-73
2023/06/10 11:34:14;;;;;;;0.80;0.40;;;27.70;1.00;;;;;;4953783;29;20855;-72
2023/06/10 11:36:45;;;;;;;1.00;0.70;;;27.70;1.00;;;;;;4953166;29;20566;-73
2023/06/10 11:39:13;;;;;;;0.93;0.80;;;27.70;1.00;;;;;;4954485;29;20498;-71
2023/06/10 11:41:41;;;;;;;0.70;0.20;;;27.80;1.00;;;;;;4954669;29;20454;-76
2023/06/10 11:44:11;;;;;;;0.70;0.20;;;27.70;1.00;;;;;;4955522;29;20485;-77
2023/06/10 11:46:40;;;;;;;0.70;0.10;;;;;;;;;;4954572;29;20518;-74
2023/06/10 11:49:09;;;;;;;0.80;0.50;;;27.90;1.00;;;;;;4955252;29;20447;-73
2023/06/10 11:51:40;;;;;;;1.60;1.50;;;28.10;1.00;;;;;;4953961;29;20530;-73
2023/06/10 11:54:10;;;;;;;1.57;0.63;;;28.20;1.00;;;;;;4953395;29;20933;-73
2023/06/10 11:56:38;;;;;;;0.70;0.20;;;28.10;1.00;;;;;;4952631;29;20541;-72
2023/06/10 11:59:07;;;;;;;1.03;0.83;;;28.20;1.00;;;;;;4953176;29;20534;-74
2023/06/10 12:01:37;;;;;;;0.90;0.60;;;28.20;1.00;;;;;;4952964;29;20462;-74
2023/06/10 12:04:12;;;;;;;0.70;0.20;;;28.40;1.00;;;;;;4946456;29;20478;-75
2023/06/10 12:06:43;;;;;;;0.70;0.20;;;28.60;1.00;;;;;;4952449;29;20467;-74
2023/06/10 12:09:19;;;;;;;0.70;0.10;;;28.60;1.00;;;;;;4939369;29;20892;-74
2023/06/10 12:11:55;;;;;;;0.80;0.37;;;28.60;1.00;;;;;;4953611;29;20451;-73
2023/06/10 12:14:54;;;;;;;1.33;0.60;;;28.30;1.00;;;;;;4953732;29;20451;-74
2023/06/10 12:17:23;;;;;;;0.70;0.17;;;28.30;1.00;;;;;;4957281;28;20486;-73
2023/06/10 12:19:53;;;;;;;2.10;1.13;;;28.40;1.00;;;;;;4957673;29;20451;-74
2023/06/10 12:22:23;;;;;;;1.53;1.43;;;28.30;1.00;;;;;;4957620;29;20458;-74
2023/06/10 12:25:02;;;;;;;1.17;0.57;;;28.30;1.00;;;;;;4957700;29;20478;-73
2023/06/10 12:27:31;;;;;;;1.93;1.43;;;28.30;1.00;;;;;;4957595;29;20470;-73
2023/06/10 12:30:03;;;;;;;0.83;0.50;;;28.20;1.00;;;;;;4956593;29;20464;-73
2023/06/10 12:32:42;;;;;;;1.30;0.40;;;28.30;1.00;;;;;;4955563;29;20471;-75
2023/06/10 12:35:13;;;;;;;1.27;1.17;;;28.30;1.00;;;;;;4956019;29;20549;-75
2023/06/10 12:37:42;;;;;;;0.70;0.10;;;28.40;1.00;;;;;;4957394;29;20481;-75
2023/06/10 12:40:12;;;;;;;1.33;1.23;;;28.50;1.00;;;;;;4954664;28;20574;-75
2023/06/10 12:42:41;;;;;;;1.43;0.60;;;28.60;1.00;;;;;;4960910;28;20454;-74
2023/06/10 12:45:11;;;;;;;1.13;1.03;;;28.60;1.00;;;;;;4949871;29;20509;-72
2023/06/10 12:47:41;;;;;;;1.00;0.87;;;28.60;1.00;;;;;;4953013;29;20533;-73
2023/06/10 12:50:11;;;;;;;0.70;0.20;;;28.70;1.00;;;;;;4956352;29;20450;-72
2023/06/10 12:52:42;;;;;;;3.00;1.20;;;28.90;1.00;;;;;;4956177;29;20512;-75
2023/06/10 12:55:10;;;;;;;0.70;0.10;;;29.00;1.00;;;;;;4955540;29;20934;-73
2023/06/10 12:57:48;;;;;;;0.80;0.33;;;29.00;1.00;;;;;;4956606;29;20463;-72
2023/06/10 13:00:17;;;;;;;1.57;1.47;;;29.00;1.00;;;;;;4956448;29;20440;-73
2023/06/10 13:02:45;;;;;;;0.70;0.10;;;29.10;1.00;;;;;;4952973;28;20467;-73
2023/06/10 13:05:14;;;;;;;0.77;0.37;;;29.10;1.00;;;;;;4956110;28;20469;-73
2023/06/10 13:07:45;;;;;;;0.80;0.40;;;29.10;1.00;;;;;;4955578;29;20529;-74
2023/06/10 13:10:14;;;;;;;0.70;0.10;;;29.30;1.00;;;;;;4956465;29;20452;-72
2023/06/10 13:12:42;;;;;;;0.70;0.17;;;29.40;1.00;;;;;;4954443;29;21100;-72
2023/06/10 13:15:15;;;;;;;0.70;0.20;;;29.50;1.00;;;;;;4955450;29;20474;-73
2023/06/10 13:17:44;;;;;;;0.70;0.20;;;29.70;1.00;;;;;;4955993;29;20464;-72
2023/06/10 13:20:12;;;;;;;0.70;0.20;;;29.70;1.00;;;;;;4957217;29;20543;-72
2023/06/10 13:22:40;;;;;;;0.70;0.20;;;29.70;1.00;;;;;;4956939;29;20845;-71
2023/06/10 13:25:10;;;;;;;0.70;0.20;;;29.90;1.00;;;;;;4955373;29;20524;-75
2023/06/10 13:27:39;;;;;;;0.70;0.20;;;30.10;1.00;;;;;;4955287;28;21086;-73
2023/06/10 13:30:09;;;;;;;1.23;0.97;;;30.10;1.00;;;;;;4955992;29;20897;-72
2023/06/10 13:32:38;;;;;;;1.07;0.93;;;30.10;1.00;;;;;;4957021;29;20848;-71
2023/06/10 13:35:07;;;;;;;0.70;0.17;;;29.80;1.00;;;;;;4957129;29;20533;-71
2023/06/10 13:37:36;;;;;;;2.23;0.93;;;;;;;;;;4957645;29;21209;-72
2023/06/10 13:40:07;;;;;;;0.80;0.33;;;29.50;1.00;;;;;;4957555;29;20489;-71
2023/06/10 13:42:36;;;;;;;1.23;0.83;;;29.20;1.00;;;;;;4957286;29;20484;-72
2023/06/10 13:45:06;;;;;;;1.17;0.60;;;29.20;1.00;;;;;;4957238;29;20494;-72
2023/06/10 13:47:35;;;;;;;1.20;0.40;;;29.00;1.00;;;;;;4956791;29;20477;-72
2023/06/10 13:50:03;;;;;;;1.50;0.73;;;28.90;1.00;;;;;;4957420;29;20450;-74
2023/06/10 13:52:31;;;;;;;0.70;0.10;;;29.10;1.00;;;;;;4956728;29;20448;-73
2023/06/10 13:54:58;;;;;;;0.70;0.10;;;29.10;1.00;;;;;;4956389;29;20526;-72
2023/06/10 13:57:27;;;;;;;0.70;0.17;;;29.30;1.00;;;;;;4956592;29;20478;-75
2023/06/10 13:59:57;;;;;;;1.10;0.57;;;29.40;1.00;;;;;;4956195;29;21210;-72
2023/06/10 14:02:24;;;;;;;0.70;0.17;;;29.50;1.00;;;;;;4955606;29;20460;-72
2023/06/10 14:04:52;;;;;;;2.80;2.10;;;29.60;1.00;;;;;;4955742;29;20567;-73
2023/06/10 14:07:20;;;;;;;1.57;1.03;;;29.70;1.00;;;;;;4956010;29;20992;-72
2023/06/10 14:09:48;;;;;;;0.90;0.70;;;29.70;1.00;;;;;;4955766;29;20458;-72
2023/06/10 14:12:16;;;;;;;1.17;0.47;;;29.50;1.00;;;;;;4955447;29;20564;-74
2023/06/10 14:14:44;;;;;;;0.70;0.20;;;29.40;1.00;;;;;;4955700;29;20546;-72
2023/06/10 14:17:13;;;;;;;0.70;0.10;;;29.50;1.00;;;;;;4955581;29;20975;-72
2023/06/10 14:19:41;;;;;;;1.00;0.30;;;29.60;1.00;;;;;;4954795;29;20553;-73
2023/06/10 14:22:09;;;;;;;1.10;0.83;;;29.60;1.00;;;;;;4955615;29;20516;-73
2023/06/10 14:24:38;;;;;;;0.80;0.40;;;29.70;1.00;;;;;;4955295;29;20453;-72
2023/06/10 14:27:07;;;;;;;0.83;0.37;;;29.60;1.00;;;;;;4955473;29;20466;-73
2023/06/10 14:29:35;;;;;;;0.70;0.30;;;29.60;1.00;;;;;;4955840;29;20460;-73
2023/06/10 14:32:03;;;;;;;0.70;0.20;;;29.60;1.00;;;;;;4953970;29;20905;-72
2023/06/10 14:34:38;;;;;;;0.70;0.20;;;29.60;1.00;;;;;;4951562;29;20461;-72
2023/06/10 14:37:07;;;;;;;0.70;0.20;;;29.70;1.00;;;;;;4954173;28;20536;-73
2023/06/10 14:39:36;;;;;;;0.87;0.20;;;29.80;1.00;;;;;;4954443;28;20442;-73
2023/06/10 14:42:04;;;;;;;0.90;0.57;;;29.90;1.00;;;;;;4955004;29;20951;-72
2023/06/10 14:44:32;;;;;;;0.90;0.67;;;30.20;1.00;;;;;;4955062;29;20472;-72
2023/06/10 14:47:00;;;;;;;1.00;0.33;;;30.40;1.00;;;;;;4954045;29;20489;-72
2023/06/10 14:49:28;;;;;;;1.07;0.40;;;30.40;1.00;;;;;;4954917;29;20451;-72
2023/06/10 14:51:57;;;;;;;0.70;0.23;;;30.50;1.00;;;;;;4956361;29;20551;-72
2023/06/10 14:54:25;;;;;;;1.00;0.63;;;30.50;1.00;;;;;;4962215;29;20527;-72
2023/06/10 14:56:53;;;;;;;0.70;0.20;;;30.40;1.00;;;;;;4959485;29;20482;-72
2023/06/10 14:59:21;;;;;;;0.70;0.10;;;30.30;1.00;;;;;;4956393;29;20469;-73
2023/06/10 15:01:49;;;;;;;0.90;0.63;;;30.50;1.00;;;;;;4954474;29;20487;-72
2023/06/10 15:04:17;;;;;;;0.93;0.63;;;30.50;1.00;;;;;;4954524;29;20459;-73
2023/06/10 15:06:50;;;;;;;1.00;0.80;;;30.40;1.00;;;;;;4952931;29;20517;-72
2023/06/10 15:09:19;;;;;;;0.70;0.20;;;30.40;1.00;;;;;;4955125;29;20568;-72
2023/06/10 15:11:48;;;;;;;0.70;0.10;;;30.50;1.00;;;;;;4956109;29;20893;-74
2023/06/10 15:14:16;;;;;;;0.70;0.20;;;30.50;1.00;;;;;;4956672;29;20449;-73
2023/06/10 15:16:43;;;;;;;1.00;0.80;;;30.50;1.00;;;;;;4957080;28;20478;-72
2023/06/10 15:19:11;;;;;;;0.70;0.20;;;30.50;1.00;;;;;;4954613;29;20508;-73
2023/06/10 15:21:39;;;;;;;0.70;0.37;;;30.50;1.00;;;;;;4954531;29;20461;-72
2023/06/10 15:24:08;;;;;;;2.33;1.07;;;30.50;1.00;;;;;;4954628;29;20546;-74
2023/06/10 15:26:37;;;;;;;0.70;0.30;;;30.40;1.00;;;;;;4953271;29;20489;-73
2023/06/10 15:29:06;;;;;;;0.70;0.10;;;30.40;1.00;;;;;;4953643;28;20507;-74
2023/06/10 15:31:33;;;;;;;0.70;0.20;;;30.40;1.00;;;;;;4956283;28;20450;-74
2023/06/10 15:34:02;;;;;;;0.70;0.30;;;30.20;1.00;;;;;;4953746;29;20453;-75
2023/06/10 15:36:31;;;;;;;0.80;0.40;;;;;;;;;;4952771;29;20481;-76
2023/06/10 15:39:02;;;;;;;0.70;0.20;;;30.10;1.00;;;;;;4953576;29;20503;-79
2023/06/10 15:41:30;;;;;;;0.70;0.20;;;30.10;1.00;;;;;;4952248;29;20454;-75
2023/06/10 15:44:00;;;;;;;0.90;0.70;;;30.00;1.00;;;;;;4953501;29;21043;-77
2023/06/10 15:46:28;;;;;;;1.20;0.80;;;29.90;1.00;;;;;;4954057;29;20509;-77
2023/06/10 15:48:57;;;;;;;0.70;0.20;;;29.90;1.00;;;;;;4954791;29;20452;-75
2023/06/10 15:51:25;;;;;;;0.80;0.33;;;30.10;1.00;;;;;;4953999;29;20453;-76
2023/06/10 15:53:53;;;;;;;0.73;0.30;;;30.10;1.00;;;;;;4954116;29;20488;-76
2023/06/10 15:56:22;;;;;;;0.70;0.10;;;30.30;1.00;;;;;;4953878;29;20529;-76
2023/06/10 15:58:50;;;;;;;1.90;1.80;;;30.40;1.00;;;;;;4954480;29;20454;-76
2023/06/10 16:01:20;;;;;;;0.70;0.30;;;30.50;1.00;;;;;;4953832;29;20486;-77
2023/06/10 16:03:48;;;;;;;0.70;0.20;;;30.50;1.00;;;;;;4949781;29;20813;-77
2023/06/10 16:06:16;;;;;;;0.80;0.40;;;30.50;1.00;;;;;;4951271;29;20490;-77
2023/06/10 16:08:45;;;;;;;0.70;0.20;;;30.60;1.00;;;;;;4952453;29;20496;-75
2023/06/10 16:11:13;;;;;;;0.90;0.40;;;30.70;1.00;;;;;;4952085;29;20502;-77
2023/06/10 16:13:41;;;;;;;0.70;0.20;;;30.70;1.00;;;;;;4952144;29;20781;-76
2023/06/10 16:16:09;;;;;;;3.83;1.10;;;30.10;1.00;;;;;;4973454;23;20883;-77
2023/06/10 16:18:38;;;;;;;0.83;0.50;;;30.90;1.00;;;;;;4964972;28;20499;-76
2023/06/10 16:21:06;;;;;;;1.57;1.47;;;30.90;1.00;;;;;;4958869;28;20546;-76
2023/06/10 16:23:34;;;;;;;0.70;0.20;;;31.00;1.00;;;;;;4973865;28;20446;-76
2023/06/10 16:26:02;;;;;;;2.03;1.00;;;31.00;1.00;;;;;;4953867;29;20454;-75
2023/06/10 16:28:31;;;;;;;0.97;0.70;;;31.00;1.00;;;;;;4935359;29;20457;-76
2023/06/10 16:30:58;;;;;;;0.70;0.23;;;31.00;1.00;;;;;;4951163;29;20454;-76
2023/06/10 16:33:27;;;;;;;0.70;0.10;;;31.10;1.00;;;;;;4954709;29;20462;-75
2023/06/10 16:35:56;;;;;;;1.47;0.87;;;31.10;1.00;;;;;;4944901;29;20443;-75
2023/06/10 16:38:24;;;;;;;0.70;0.20;;;31.10;1.00;;;;;;4949866;29;20478;-77
2023/06/10 16:40:52;;;;;;;0.70;0.20;;;31.20;1.00;;;;;;4954378;29;20509;-76
2023/06/10 16:43:20;;;;;;;1.00;0.53;;;31.30;1.00;;;;;;4954041;29;20973;-76
2023/06/10 16:45:47;;;;;;;0.70;0.20;;;31.40;1.00;;;;;;4954110;29;20541;-76
2023/06/10 16:48:15;;;;;;;17.93;1.30;;;31.60;1.00;;;;;;4954562;29;20573;-76
2023/06/10 16:50:43;;;;;;;0.90;0.33;;;31.50;1.00;;;;;;4955340;29;20545;-77
2023/06/10 16:53:13;;;;;;;1.90;0.97;;;31.50;1.00;;;;;;4955234;29;20447;-77
2023/06/10 16:55:41;;;;;;;0.80;0.73;;;31.50;1.00;;;;;;4954253;29;20987;-78
2023/06/10 16:58:09;;;;;;;1.03;0.50;;;31.50;1.00;;;;;;4954279;29;20542;-77
2023/06/10 17:00:37;;;;;;;0.70;0.37;;;31.70;1.00;;;;;;4955443;29;20482;-77
2023/06/10 17:03:05;;;;;;;0.70;0.20;;;32.10;1.00;;;;;;4955760;28;20558;-77
2023/06/10 17:05:33;;;;;;;2.00;0.50;;;31.70;1.00;;;;;;4957912;29;20447;-77
2023/06/10 17:08:01;;;;;;;1.00;0.73;;;31.70;1.00;;;;;;4957773;28;20489;-77
2023/06/10 17:10:30;;;;;;;2.83;1.93;;;31.70;1.00;;;;;;4953894;29;20458;-76
2023/06/10 17:12:58;;;;;;;1.20;0.93;;;31.50;1.00;;;;;;4938711;29;20493;-76